Lowden, Washington
Current Conditions -  °F | °C
As of 6:24 AM on Monday 26 Jan 2015 (Local Time) from KALW Reporting Station
Moderate Fog Moderate Fog  
Wind Chill: 34°   Ceiling: 200
Heat Index: 34°   Visibility: 0.25mi
Dew Point: 33°   Wind: 3mph
Humidity: 96%   Direction: 150°SSE
Pressure: 30.08"   Gusts: NA
Location:  46.1196°N, 118.708°W
Report Text: KALW 261424Z 15003KT 1/4SM R20/1800V2200FT FG VV002 01/01 A3008 RMK AO2 T00110006
Loading
Personal Weather Stations






























Interactive Weather Map New forecast layout! Learn more

10-Day Weather Forecast

Advertisements
Track Severe Weather on mobile